createdAt,value
2022-08-11T00:02:30.903Z,75.17
2022-08-11T00:05:03.191Z,75.23
2022-08-11T00:07:31.781Z,75.48
2022-08-11T00:10:00.869Z,75.40
2022-08-11T00:12:29.560Z,75.58
2022-08-11T00:15:00.265Z,75.75
2022-08-11T00:17:33.183Z,76.03
2022-08-11T00:20:11.711Z,76.31
2022-08-11T00:22:46.205Z,76.18
2022-08-11T00:25:16.961Z,76.37
2022-08-11T00:27:45.449Z,76.41
2022-08-11T00:30:14.652Z,76.38
2022-08-11T00:32:56.433Z,76.46
2022-08-11T00:35:55.474Z,76.47
2022-08-11T00:38:18.954Z,76.63
2022-08-11T00:40:54.234Z,76.75
2022-08-11T00:43:30.691Z,76.72
2022-08-11T00:46:15.360Z,77.05
2022-08-11T00:49:00.993Z,76.98
2022-08-11T00:52:04.184Z,76.79
2022-08-11T00:55:13.925Z,76.79
2022-08-11T00:58:41.074Z,76.93
2022-08-11T01:01:22.811Z,76.75
2022-08-11T01:04:31.838Z,76.94
2022-08-11T01:08:01.470Z,77.20
2022-08-11T01:10:53.622Z,77.13
2022-08-11T01:13:48.098Z,77.12
2022-08-11T01:16:53.862Z,77.57
2022-08-11T01:20:44.749Z,77.57
2022-08-11T01:23:19.770Z,77.69
2022-08-11T01:26:22.170Z,77.78
2022-08-11T01:29:31.445Z,77.89
2022-08-11T01:32:47.878Z,78.08
2022-08-11T01:35:37.415Z,78.10
2022-08-11T01:38:47.618Z,78.37
2022-08-11T01:42:09.280Z,78.36
2022-08-11T01:45:07.339Z,78.48
2022-08-11T01:47:54.157Z,78.29
2022-08-11T01:50:38.552Z,78.40
2022-08-11T01:53:19.353Z,78.66
2022-08-11T01:55:58.209Z,78.72
2022-08-11T01:58:43.406Z,78.86
2022-08-11T02:01:29.582Z,78.90
2022-08-11T02:04:08.039Z,79.13
2022-08-11T02:06:58.673Z,79.17
2022-08-11T02:09:53.231Z,79.09
2022-08-11T02:12:37.954Z,79.23
2022-08-11T02:15:29.046Z,79.74
2022-08-11T02:18:06.665Z,79.46
2022-08-11T02:21:00.370Z,79.51
2022-08-11T02:24:06.599Z,79.95
2022-08-11T02:26:41.298Z,79.91
2022-08-11T02:29:17.210Z,80.09
2022-08-11T02:32:28.623Z,80.21
2022-08-11T02:35:06.860Z,80.21
2022-08-11T02:37:45.366Z,80.32
2022-08-11T02:40:25.454Z,80.64
2022-08-11T02:43:10.323Z,80.99
2022-08-11T02:45:54.231Z,81.00
2022-08-11T02:48:52.701Z,81.04
2022-08-11T02:51:28.950Z,81.30
2022-08-11T02:54:07.722Z,81.78
2022-08-11T02:56:52.463Z,82.05
2022-08-11T02:59:51.739Z,82.31
2022-08-11T03:02:42.607Z,82.35
2022-08-11T03:05:23.701Z,82.53
2022-08-11T03:08:06.893Z,82.66
2022-08-11T03:10:43.546Z,82.58
2022-08-11T03:13:38.008Z,82.88
2022-08-11T03:16:34.511Z,82.97
2022-08-11T03:19:13.240Z,83.38
2022-08-11T03:22:01.856Z,83.29
2022-08-11T03:24:51.435Z,83.65
2022-08-11T03:27:44.043Z,83.84
2022-08-11T03:30:17.468Z,83.89
2022-08-11T03:33:19.326Z,84.33
2022-08-11T03:36:02.377Z,84.17
2022-08-11T03:38:39.678Z,84.22
2022-08-11T03:42:03.542Z,84.44
2022-08-11T03:44:57.126Z,84.62
2022-08-11T03:47:55.426Z,84.73
2022-08-11T03:50:54.456Z,84.71
2022-08-11T03:53:46.537Z,84.79
2022-08-11T03:56:42.764Z,84.99
2022-08-11T03:59:33.320Z,84.90
2022-08-11T04:02:28.709Z,85.15
2022-08-11T04:05:40.185Z,85.44
2022-08-11T04:08:33.831Z,85.43
2022-08-11T04:11:32.198Z,85.39
2022-08-11T04:14:42.714Z,85.29
2022-08-11T04:17:37.277Z,85.62
2022-08-11T04:20:50.982Z,85.69
2022-08-11T04:24:35.483Z,85.58
2022-08-11T04:26:55.150Z,85.56
2022-08-11T04:30:04.015Z,85.39
2022-08-11T04:32:43.639Z,85.60
2022-08-11T04:35:26.552Z,85.51
2022-08-11T04:38:31.043Z,85.86
2022-08-11T04:41:27.068Z,85.89
2022-08-11T04:44:29.863Z,86.13
2022-08-11T04:48:01.731Z,85.86
2022-08-11T04:51:04.066Z,85.76
2022-08-11T04:54:17.279Z,85.77
2022-08-11T04:57:05.393Z,85.70
2022-08-11T05:00:18.958Z,85.91
2022-08-11T05:03:24.969Z,85.58
2022-08-11T05:06:40.956Z,85.42
2022-08-11T05:09:32.256Z,85.26
2022-08-11T05:12:31.182Z,85.19
2022-08-11T05:15:18.080Z,84.89
2022-08-11T05:18:12.521Z,84.90
2022-08-11T05:21:05.672Z,84.85
2022-08-11T05:23:54.430Z,84.65
2022-08-11T05:26:47.640Z,84.43
2022-08-11T05:29:46.248Z,84.21
2022-08-11T05:32:36.132Z,83.92
2022-08-11T05:35:08.129Z,83.73
2022-08-11T05:37:57.282Z,83.42
2022-08-11T05:40:43.586Z,83.25
2022-08-11T05:43:39.722Z,83.29
2022-08-11T05:46:46.794Z,83.25
2022-08-11T05:49:32.818Z,82.96
2022-08-11T05:52:19.793Z,83.11
2022-08-11T05:55:10.941Z,83.12
2022-08-11T05:57:51.700Z,82.88
2022-08-11T06:00:24.327Z,82.84
2022-08-11T06:02:55.508Z,82.90
2022-08-11T06:05:25.162Z,82.80
2022-08-11T06:07:57.240Z,82.73
2022-08-11T06:10:33.584Z,82.49
2022-08-11T06:13:02.350Z,82.17
2022-08-11T06:15:35.656Z,82.08
2022-08-11T06:18:04.790Z,81.95
2022-08-11T06:20:37.600Z,81.66
2022-08-11T06:23:08.973Z,81.20
2022-08-11T06:25:38.457Z,81.23
2022-08-11T06:28:08.653Z,80.78
2022-08-11T06:30:42.778Z,80.84
2022-08-11T06:33:13.686Z,80.67
2022-08-11T06:35:53.038Z,80.11
2022-08-11T06:38:38.069Z,79.99
2022-08-11T06:41:32.054Z,79.71
2022-08-11T06:44:13.269Z,79.70
2022-08-11T06:46:44.534Z,79.44
2022-08-11T06:49:29.092Z,79.14
2022-08-11T06:52:01.806Z,78.79
2022-08-11T06:54:35.245Z,78.49
2022-08-11T06:57:31.914Z,78.66
2022-08-11T07:00:19.444Z,78.40
2022-08-11T07:02:56.347Z,77.74
2022-08-11T07:05:30.086Z,77.19
2022-08-11T07:08:51.254Z,76.39
2022-08-11T07:11:58.890Z,75.79
2022-08-11T07:14:46.885Z,75.30
2022-08-11T07:17:18.523Z,75.00
2022-08-11T07:20:13.009Z,75.42
2022-08-11T07:23:05.877Z,75.13
2022-08-11T07:25:55.261Z,72.27
2022-08-11T07:28:43.805Z,70.63
2022-08-11T07:31:15.525Z,72.13
2022-08-11T07:34:08.108Z,69.82
2022-08-11T07:36:40.848Z,67.88
2022-08-11T07:39:18.253Z,66.05
2022-08-11T07:41:48.518Z,64.81
2022-08-11T07:44:17.561Z,63.47
2022-08-11T07:47:06.713Z,62.45
2022-08-11T07:49:58.742Z,60.76
2022-08-11T07:52:32.661Z,58.09
2022-08-11T07:55:03.399Z,58.04
2022-08-11T07:58:15.783Z,57.48
2022-08-11T08:00:59.345Z,56.96
2022-08-11T08:03:54.444Z,56.17
2022-08-11T08:06:41.591Z,56.30
2022-08-11T08:09:29.988Z,55.77
2022-08-11T08:12:18.473Z,55.89
2022-08-11T08:15:04.185Z,55.67
2022-08-11T08:18:20.709Z,54.91
2022-08-11T08:20:46.000Z,55.01
2022-08-11T08:23:14.866Z,54.25
2022-08-11T08:25:47.026Z,54.58
2022-08-11T08:28:18.745Z,53.08
2022-08-11T08:30:50.086Z,53.18
2022-08-11T08:33:21.863Z,52.33
2022-08-11T08:35:54.532Z,51.72
2022-08-11T08:38:24.448Z,51.72
2022-08-11T08:40:56.522Z,51.48
2022-08-11T08:43:26.041Z,51.18
2022-08-11T08:45:57.384Z,51.09
2022-08-11T08:48:27.462Z,51.13
2022-08-11T08:51:20.060Z,49.42
2022-08-11T08:53:56.470Z,48.41
2022-08-11T08:56:34.722Z,49.02
2022-08-11T08:59:04.079Z,49.34
2022-08-11T09:01:40.163Z,50.47
2022-08-11T09:04:12.223Z,50.31
2022-08-11T09:06:44.247Z,49.38
2022-08-11T09:09:18.781Z,49.15
2022-08-11T09:11:53.709Z,49.37
2022-08-11T09:14:24.364Z,49.11
2022-08-11T09:16:53.868Z,48.26
2022-08-11T09:19:23.146Z,47.20
2022-08-11T09:22:08.977Z,46.44
2022-08-11T09:24:56.372Z,46.61
2022-08-11T09:27:27.666Z,46.29
2022-08-11T09:29:56.567Z,45.71
2022-08-11T09:32:24.870Z,45.46
2022-08-11T09:34:54.147Z,45.99
2022-08-11T09:37:54.923Z,45.29
2022-08-11T09:40:33.780Z,45.82
2022-08-11T09:43:25.815Z,44.19
2022-08-11T09:45:55.366Z,44.39
2022-08-11T09:48:25.942Z,44.50
2022-08-11T09:50:56.356Z,43.97
2022-08-11T09:53:35.873Z,44.17
2022-08-11T09:56:29.027Z,44.56
2022-08-11T09:58:59.216Z,43.90
2022-08-11T10:01:33.231Z,43.17
2022-08-11T10:04:18.502Z,42.88
2022-08-11T10:07:06.808Z,42.16
2022-08-11T10:09:39.982Z,42.55
2022-08-11T10:12:11.608Z,42.84
2022-08-11T10:15:02.498Z,42.16
2022-08-11T10:17:33.194Z,42.57
2022-08-11T10:20:05.888Z,41.85
2022-08-11T10:22:53.251Z,41.77
2022-08-11T10:25:40.232Z,40.99
2022-08-11T10:28:28.380Z,41.17
2022-08-11T10:31:18.372Z,41.74
2022-08-11T10:34:04.172Z,41.33
2022-08-11T10:36:34.762Z,41.90
2022-08-11T10:39:05.159Z,40.48
2022-08-11T10:42:03.345Z,40.38
2022-08-11T10:44:40.379Z,40.27
2022-08-11T10:47:30.894Z,40.70
2022-08-11T10:50:17.490Z,40.07
2022-08-11T10:53:06.447Z,39.27
2022-08-11T10:55:52.947Z,39.17
2022-08-11T10:58:39.909Z,37.83
2022-08-11T11:01:08.828Z,37.63
2022-08-11T11:03:40.482Z,38.22
2022-08-11T11:06:28.219Z,37.83
2022-08-11T11:09:05.472Z,37.26
2022-08-11T11:11:56.285Z,37.52
2022-08-11T11:14:49.920Z,38.00
2022-08-11T11:17:46.699Z,38.47
2022-08-11T11:20:36.504Z,38.11
2022-08-11T11:23:11.554Z,38.33
2022-08-11T11:26:28.029Z,38.75
2022-08-11T11:29:25.377Z,39.79
2022-08-11T11:32:10.580Z,38.24
2022-08-11T11:35:11.712Z,37.60
2022-08-11T11:38:03.902Z,36.54
2022-08-11T11:40:32.709Z,35.89
2022-08-11T11:43:02.366Z,35.92
2022-08-11T11:45:30.751Z,34.93
2022-08-11T11:48:00.827Z,35.85
2022-08-11T11:50:32.902Z,36.09
2022-08-11T11:53:05.525Z,36.53
2022-08-11T11:55:34.044Z,37.95
2022-08-11T11:58:22.110Z,36.61
2022-08-11T12:01:09.395Z,35.57
2022-08-11T12:03:38.706Z,35.74
2022-08-11T12:06:09.517Z,36.47
2022-08-11T12:08:39.068Z,36.12
2022-08-11T12:11:28.124Z,36.42
2022-08-11T12:13:59.244Z,35.09
2022-08-11T12:16:33.793Z,33.75
2022-08-11T12:19:07.369Z,33.38
2022-08-11T12:21:37.650Z,33.77
2022-08-11T12:24:29.288Z,33.23
2022-08-11T12:27:17.630Z,33.19
2022-08-11T12:29:52.882Z,33.63
2022-08-11T12:32:25.416Z,33.52
2022-08-11T12:34:53.931Z,33.82
2022-08-11T12:37:30.516Z,33.90
2022-08-11T12:40:43.782Z,34.02
2022-08-11T12:43:37.859Z,33.44
2022-08-11T12:46:10.242Z,33.91
2022-08-11T12:49:03.383Z,34.21
2022-08-11T12:52:11.977Z,34.10
2022-08-11T12:54:51.934Z,33.08
2022-08-11T12:57:45.402Z,32.94
2022-08-11T13:00:32.431Z,33.35
2022-08-11T13:03:19.223Z,32.86
2022-08-11T13:05:49.653Z,32.56
2022-08-11T13:08:18.922Z,32.26
2022-08-11T13:11:05.782Z,31.69
2022-08-11T13:13:53.509Z,31.63
2022-08-11T13:16:24.427Z,31.32
2022-08-11T13:18:53.764Z,31.22
2022-08-11T13:21:23.121Z,30.74
2022-08-11T13:23:59.520Z,29.70
2022-08-11T13:26:47.828Z,30.07
2022-08-11T13:29:24.349Z,29.20
2022-08-11T13:31:53.604Z,28.80
2022-08-11T13:34:24.148Z,29.37
2022-08-11T13:36:54.486Z,29.10
2022-08-11T13:39:27.340Z,28.76
2022-08-11T13:41:57.115Z,28.31
2022-08-11T13:44:29.016Z,27.43
2022-08-11T13:47:01.672Z,28.38
2022-08-11T13:49:30.971Z,27.83
2022-08-11T13:52:00.746Z,27.32
2022-08-11T13:54:31.658Z,26.50
2022-08-11T13:57:09.464Z,26.93
2022-08-11T14:00:12.241Z,26.99
2022-08-11T14:02:55.069Z,27.12
2022-08-11T14:05:28.541Z,27.41
2022-08-11T14:08:01.212Z,27.50
2022-08-11T14:10:33.149Z,28.47
2022-08-11T14:13:21.233Z,27.36
2022-08-11T14:15:52.658Z,27.12
2022-08-11T14:18:23.901Z,27.90
2022-08-11T14:21:12.978Z,28.25
2022-08-11T14:23:43.653Z,28.77
2022-08-11T14:26:31.867Z,28.72
2022-08-11T14:29:03.276Z,29.42
2022-08-11T14:31:37.217Z,29.98
2022-08-11T14:34:07.849Z,30.03
2022-08-11T14:36:38.011Z,29.84
2022-08-11T14:39:11.702Z,29.89
2022-08-11T14:42:10.276Z,29.90
2022-08-11T14:45:01.250Z,29.69
2022-08-11T14:47:32.827Z,28.73
2022-08-11T14:50:10.762Z,28.74
2022-08-11T14:52:45.169Z,28.26
2022-08-11T14:55:32.457Z,28.09
2022-08-11T14:58:02.038Z,28.44
2022-08-11T15:00:34.382Z,27.87
2022-08-11T15:03:13.895Z,26.62
2022-08-11T15:05:57.242Z,26.23
2022-08-11T15:08:42.683Z,26.41
2022-08-11T15:11:33.548Z,25.62
2022-08-11T15:14:03.602Z,24.99
2022-08-11T15:16:49.990Z,25.25
2022-08-11T15:19:22.172Z,25.15
2022-08-11T15:22:08.713Z,24.71
2022-08-11T15:24:37.839Z,24.19
2022-08-11T15:27:25.807Z,24.66
2022-08-11T15:30:17.548Z,25.11
2022-08-11T15:33:27.208Z,24.89
2022-08-11T15:36:15.652Z,24.38
2022-08-11T15:38:47.619Z,23.84
2022-08-11T15:41:36.641Z,24.83
2022-08-11T15:44:51.416Z,25.94
2022-08-11T15:47:16.416Z,24.84
2022-08-11T15:50:11.925Z,25.20
2022-08-11T15:52:47.495Z,25.80
2022-08-11T15:55:16.485Z,25.36
2022-08-11T15:58:03.193Z,24.72
2022-08-11T16:00:49.178Z,25.02
2022-08-11T16:04:06.543Z,25.04
2022-08-11T16:06:35.792Z,25.46
2022-08-11T16:09:18.257Z,25.65
2022-08-11T16:11:48.078Z,25.42
2022-08-11T16:14:35.340Z,25.65
2022-08-11T16:17:05.604Z,26.07
2022-08-11T16:19:36.750Z,26.85
2022-08-11T16:22:08.314Z,27.02
2022-08-11T16:27:03.321Z,27.30
2022-08-11T16:27:34.467Z,27.58
2022-08-11T16:30:05.381Z,27.13
2022-08-11T16:32:35.506Z,27.13
2022-08-11T16:35:25.244Z,27.32
2022-08-11T16:38:11.428Z,26.70
2022-08-11T16:40:41.775Z,26.79
2022-08-11T16:43:32.015Z,26.48
2022-08-11T16:46:19.689Z,27.09
2022-08-11T16:48:50.607Z,27.32
2022-08-11T16:51:21.038Z,27.35
2022-08-11T16:54:04.381Z,28.48
2022-08-11T16:56:38.817Z,29.42
2022-08-11T16:59:16.535Z,29.57
2022-08-11T17:01:49.212Z,30.00
2022-08-11T17:04:54.930Z,30.73
2022-08-11T17:07:43.298Z,31.13
2022-08-11T17:10:51.309Z,31.70
2022-08-11T17:13:38.017Z,31.75
2022-08-11T17:16:10.168Z,32.23
2022-08-11T17:18:45.501Z,31.67
2022-08-11T17:21:17.402Z,31.90
2022-08-11T17:23:48.230Z,31.65
2022-08-11T17:26:19.533Z,32.01
2022-08-11T17:28:53.016Z,32.09
2022-08-11T17:31:40.814Z,32.73
2022-08-11T17:34:27.499Z,32.94
2022-08-11T17:36:56.258Z,33.53
2022-08-11T17:39:29.553Z,33.50
2022-08-11T17:42:16.336Z,34.10
2022-08-11T17:45:04.645Z,34.55
2022-08-11T17:47:52.524Z,34.83
2022-08-11T17:50:21.249Z,35.09
2022-08-11T17:53:10.216Z,35.61
2022-08-11T17:55:58.465Z,35.84
2022-08-11T17:58:47.394Z,36.24
2022-08-11T18:01:18.384Z,36.68
2022-08-11T18:03:56.291Z,36.75
2022-08-11T18:06:34.252Z,37.01
2022-08-11T18:09:22.758Z,37.26
2022-08-11T18:12:12.192Z,37.78
2022-08-11T18:14:59.311Z,37.79
2022-08-11T18:17:46.070Z,38.06
2022-08-11T18:20:31.658Z,38.37
2022-08-11T18:23:17.852Z,38.57
2022-08-11T18:26:07.310Z,38.92
2022-08-11T18:28:59.880Z,39.13
2022-08-11T18:31:46.220Z,38.96
2022-08-11T18:34:36.210Z,39.63
2022-08-11T18:37:28.600Z,39.65
2022-08-11T18:40:19.209Z,39.92
2022-08-11T18:43:06.536Z,40.02
2022-08-11T18:46:06.401Z,40.31
2022-08-11T18:48:55.175Z,40.57
2022-08-11T18:51:44.251Z,40.67
2022-08-11T18:54:31.137Z,40.73
2022-08-11T18:57:22.414Z,40.73
2022-08-11T19:00:11.961Z,41.11
2022-08-11T19:02:59.942Z,41.17
2022-08-11T19:06:35.808Z,41.56
2022-08-11T19:09:01.085Z,41.38
2022-08-11T19:11:49.705Z,41.77
2022-08-11T19:14:38.049Z,41.83
2022-08-11T19:17:44.079Z,42.27
2022-08-11T19:20:35.326Z,42.60
2022-08-11T19:23:22.306Z,43.05
2022-08-11T19:26:10.178Z,43.10
2022-08-11T19:28:58.198Z,43.31
2022-08-11T19:31:45.673Z,43.67
2022-08-11T19:34:33.774Z,43.51
2022-08-11T19:37:24.410Z,43.89
2022-08-11T19:40:13.343Z,44.33
2022-08-11T19:43:02.713Z,44.55
2022-08-11T19:45:52.540Z,44.91
2022-08-11T19:48:40.218Z,45.15
2022-08-11T19:51:27.268Z,45.36
2022-08-11T19:54:13.912Z,45.71
2022-08-11T19:57:00.936Z,45.61
2022-08-11T19:59:49.304Z,45.88
2022-08-11T20:02:35.085Z,45.78
2022-08-11T20:05:21.238Z,45.91
2022-08-11T20:08:08.221Z,46.50
2022-08-11T20:10:55.964Z,46.37
2022-08-11T20:13:43.433Z,46.28
2022-08-11T20:16:32.776Z,47.00
2022-08-11T20:19:19.977Z,46.84
2022-08-11T20:22:13.198Z,46.97
2022-08-11T20:25:00.957Z,47.22
2022-08-11T20:27:47.280Z,47.44
2022-08-11T20:30:33.280Z,47.25
2022-08-11T20:33:21.320Z,47.32
2022-08-11T20:36:08.474Z,47.42
2022-08-11T20:38:55.532Z,47.48
2022-08-11T20:41:58.826Z,48.03
2022-08-11T20:44:47.666Z,48.19
2022-08-11T20:47:56.546Z,48.75
2022-08-11T20:50:46.283Z,48.71
2022-08-11T20:53:38.985Z,49.19
2022-08-11T20:59:43.683Z,49.30
2022-08-11T21:02:41.094Z,49.56
2022-08-11T21:06:08.934Z,50.04
2022-08-11T21:08:38.836Z,50.05
2022-08-11T21:11:28.651Z,50.31
2022-08-11T21:14:16.357Z,50.45
2022-08-11T21:17:18.701Z,50.66
2022-08-11T21:20:20.645Z,51.16
2022-08-11T21:23:19.815Z,51.81
2022-08-11T21:26:17.946Z,51.87
2022-08-11T21:29:09.398Z,52.00
2022-08-11T21:31:58.098Z,52.25
2022-08-11T21:34:44.814Z,52.67
2022-08-11T21:37:31.878Z,52.81
2022-08-11T21:40:20.908Z,53.20
2022-08-11T21:43:10.924Z,53.10
2022-08-11T21:45:59.592Z,53.48
2022-08-11T21:48:47.683Z,53.67
2022-08-11T21:51:33.122Z,53.96
2022-08-11T21:54:21.033Z,54.22
2022-08-11T21:57:10.117Z,54.31
2022-08-11T22:00:04.706Z,54.79
2022-08-11T22:02:53.222Z,54.95
2022-08-11T22:05:39.861Z,55.13
2022-08-11T22:08:29.320Z,55.62
2022-08-11T22:11:16.691Z,55.86
2022-08-11T22:14:18.181Z,55.79
2022-08-11T22:17:05.268Z,56.32
2022-08-11T22:19:53.231Z,56.72
2022-08-11T22:22:52.518Z,57.20
2022-08-11T22:25:44.248Z,57.28
2022-08-11T22:28:37.570Z,57.53
2022-08-11T22:31:24.347Z,57.83
2022-08-11T22:34:11.158Z,57.97
2022-08-11T22:36:57.678Z,58.31
2022-08-11T22:39:44.650Z,58.60
2022-08-11T22:42:45.987Z,58.80
2022-08-11T22:45:32.151Z,59.04
2022-08-11T22:48:20.441Z,59.37
2022-08-11T22:51:08.095Z,59.74
2022-08-11T22:53:55.242Z,59.86
2022-08-11T22:56:46.819Z,60.14
2022-08-11T22:59:32.989Z,60.32
2022-08-11T23:02:20.184Z,60.49
2022-08-11T23:05:09.431Z,61.08
2022-08-11T23:07:57.590Z,61.56
2022-08-11T23:10:44.484Z,61.98
2022-08-11T23:13:30.913Z,62.17
2022-08-11T23:16:19.989Z,62.63
2022-08-11T23:19:07.126Z,62.85
2022-08-11T23:21:53.738Z,63.10
2022-08-11T23:24:43.490Z,63.34
2022-08-11T23:27:31.659Z,63.55
2022-08-11T23:30:20.845Z,63.82
2022-08-11T23:33:09.348Z,64.00
2022-08-11T23:36:02.266Z,64.34
2022-08-11T23:38:51.588Z,64.48
2022-08-11T23:41:39.515Z,65.23
2022-08-11T23:44:27.104Z,65.30
2022-08-11T23:47:15.282Z,65.66
2022-08-11T23:50:01.277Z,65.81
2022-08-11T23:52:48.587Z,65.81
2022-08-11T23:55:38.130Z,65.84
2022-08-11T23:58:24.989Z,66.33
